createdAt,value
2018-08-21T20:10:26.986Z,27.23
2018-08-21T20:11:41.640Z,27.07
2018-08-21T20:12:55.595Z,27.02
2018-08-21T20:14:09.952Z,27.02
2018-08-21T20:15:24.589Z,27.02
2018-08-21T20:16:39.694Z,27
2018-08-21T20:18:08.812Z,27
2018-08-21T20:19:22.971Z,26.99
2018-08-21T20:20:37.397Z,26.96
2018-08-21T20:21:51.018Z,26.97
2018-08-21T20:23:05.310Z,26.97
2018-08-21T20:24:20.563Z,26.97
2018-08-21T20:25:34.385Z,26.94
2018-08-21T20:26:49.576Z,26.93
2018-08-21T20:28:04.501Z,26.89
2018-08-21T20:29:22.145Z,26.87
2018-08-21T20:30:37.012Z,26.86
2018-08-21T20:31:52.116Z,26.84
2018-08-21T20:33:07.032Z,26.81
2018-08-21T20:34:22.455Z,26.8
2018-08-21T20:35:36.987Z,26.78
2018-08-21T20:36:52.477Z,26.77
2018-08-21T20:38:08.405Z,26.77
2018-08-21T20:39:23.926Z,26.74
2018-08-21T20:40:38.001Z,26.74
2018-08-21T20:41:52.660Z,26.72
2018-08-21T20:43:06.894Z,26.74
2018-08-21T20:44:21.046Z,26.73
2018-08-21T20:45:35.585Z,26.71
2018-08-21T20:46:50.198Z,26.7
2018-08-21T20:48:04.804Z,26.69
2018-08-21T20:49:19.719Z,26.66
2018-08-21T20:50:33.775Z,26.64
2018-08-21T20:51:47.609Z,26.64
2018-08-21T20:53:02.279Z,26.63
2018-08-21T20:54:16.594Z,26.64
2018-08-21T20:55:31.101Z,26.63
2018-08-21T20:56:45.170Z,26.64
2018-08-21T20:57:59.017Z,26.63
2018-08-21T20:59:13.303Z,26.64
2018-08-21T21:00:27.212Z,26.63
2018-08-21T21:01:41.423Z,26.63
2018-08-21T21:02:55.761Z,26.64
2018-08-21T21:04:10.415Z,26.64
2018-08-21T21:05:25.205Z,26.64
2018-08-21T21:06:39.814Z,26.66
2018-08-21T21:07:55.028Z,26.65
2018-08-21T21:09:08.762Z,26.63
2018-08-21T21:10:23.189Z,26.62
2018-08-21T21:11:37.481Z,26.61
2018-08-21T21:13:06.317Z,26.61
2018-08-21T21:14:20.690Z,26.58
2018-08-21T21:15:35.043Z,26.56
2018-08-21T21:16:49.311Z,26.54
2018-08-21T21:18:03.419Z,26.51
2018-08-21T21:19:17.458Z,26.5
2018-08-21T21:20:31.810Z,26.48
2018-08-21T21:21:46.620Z,26.45
2018-08-21T21:23:01.755Z,26.42
2018-08-21T21:24:16.070Z,26.43
2018-08-21T21:25:30.233Z,26.41
2018-08-21T21:26:45.144Z,26.41
2018-08-21T21:27:59.020Z,26.41
2018-08-21T21:29:13.095Z,26.41
2018-08-21T21:30:27.228Z,26.41
2018-08-21T21:31:41.123Z,26.4
2018-08-21T21:32:55.962Z,26.4
2018-08-21T21:34:10.713Z,26.4
2018-08-21T21:35:25.323Z,26.38
2018-08-21T21:36:54.523Z,26.39
2018-08-21T21:38:09.026Z,26.38
2018-08-21T21:39:22.672Z,26.39
2018-08-21T21:40:37.198Z,26.39
2018-08-21T21:41:51.296Z,26.4
2018-08-21T21:43:05.440Z,26.34
2018-08-21T21:44:20.355Z,26.32
2018-08-21T21:45:35.241Z,26.27
2018-08-21T21:46:48.950Z,26.25
2018-08-21T21:48:03.268Z,26.22
2018-08-21T21:49:17.407Z,26.2
2018-08-21T21:50:31.713Z,26.17
2018-08-21T21:51:46.072Z,26.17
2018-08-21T21:53:00.411Z,26.16
2018-08-21T21:54:15.218Z,26.16
2018-08-21T21:55:29.698Z,26.15
2018-08-21T21:56:43.269Z,26.14
2018-08-21T21:57:57.810Z,26.13
2018-08-21T21:59:12.408Z,26.12
2018-08-21T22:00:26.754Z,26.1
2018-08-21T22:01:40.869Z,26.08
2018-08-21T22:02:55.291Z,26.08
2018-08-21T22:04:10.051Z,26.08
2018-08-21T22:05:25.250Z,26.09
2018-08-21T22:06:54.085Z,26.1
2018-08-21T22:08:08.519Z,26.1
2018-08-21T22:09:22.824Z,26.12
2018-08-21T22:10:37.178Z,26.14
2018-08-21T22:11:51.248Z,26.15
2018-08-21T22:13:05.106Z,26.15
2018-08-21T22:14:19.844Z,26.17
2018-08-21T22:15:34.252Z,26.17
2018-08-21T22:16:48.586Z,26.17
2018-08-21T22:18:02.787Z,26.16
2018-08-21T22:19:16.471Z,26.15
2018-08-21T22:20:30.779Z,26.13
2018-08-21T22:21:44.430Z,26.12
2018-08-21T22:22:58.257Z,26.1
2018-08-21T22:24:12.596Z,26.07
2018-08-21T22:25:26.746Z,26.05
2018-08-21T22:26:41.675Z,26.03
2018-08-21T22:27:56.329Z,25.99
2018-08-21T22:29:09.978Z,25.95
2018-08-21T22:30:24.868Z,25.9
2018-08-21T22:31:39.276Z,25.85
2018-08-21T22:32:53.979Z,25.8
2018-08-21T22:34:08.270Z,25.77
2018-08-21T22:35:22.595Z,25.74
2018-08-21T22:36:36.741Z,25.72
2018-08-21T22:37:50.854Z,25.72
2018-08-21T22:39:05.270Z,25.7
2018-08-21T22:40:19.335Z,25.66
2018-08-21T22:41:33.387Z,25.62
2018-08-21T22:42:47.232Z,25.59
2018-08-21T22:44:01.205Z,25.56
2018-08-21T22:45:15.811Z,25.54
2018-08-21T22:46:30.037Z,25.52
2018-08-21T22:47:44.328Z,25.52
2018-08-21T22:48:58.961Z,25.52
2018-08-21T22:50:13.075Z,25.5
2018-08-21T22:51:27.282Z,25.49
2018-08-21T22:52:41.235Z,25.47
2018-08-21T22:53:55.421Z,25.46
2018-08-21T22:55:09.968Z,25.45
2018-08-21T22:56:24.071Z,25.43
2018-08-21T22:57:38.462Z,25.41
2018-08-21T22:58:52.472Z,25.39
2018-08-21T23:00:07.006Z,25.39
2018-08-21T23:01:21.859Z,25.39
2018-08-21T23:02:36.132Z,25.38
2018-08-21T23:03:49.794Z,25.37
2018-08-21T23:05:04.036Z,25.35
2018-08-21T23:06:17.884Z,25.34
2018-08-21T23:07:32.264Z,25.31
2018-08-21T23:08:46.899Z,25.29
2018-08-21T23:10:01.344Z,25.28
2018-08-21T23:11:15.230Z,25.27
2018-08-21T23:12:29.359Z,25.25
2018-08-21T23:13:43.649Z,25.25
2018-08-21T23:14:57.493Z,25.25
2018-08-21T23:16:12.030Z,25.25
2018-08-21T23:17:25.846Z,25.25
2018-08-21T23:18:39.940Z,25.26
2018-08-21T23:19:54.201Z,25.25
2018-08-21T23:21:08.483Z,25.24
2018-08-21T23:22:22.803Z,25.23
2018-08-21T23:23:37.467Z,25.19
2018-08-21T23:24:51.546Z,25.17
2018-08-21T23:26:05.628Z,25.15
2018-08-21T23:27:19.837Z,25.13
2018-08-21T23:28:33.764Z,25.14
2018-08-21T23:29:47.629Z,25.15
2018-08-21T23:31:01.968Z,25.14
2018-08-21T23:32:15.793Z,25.12
2018-08-21T23:33:30.091Z,25.1
2018-08-21T23:34:44.658Z,25.08
2018-08-21T23:35:58.995Z,25.04
2018-08-21T23:37:13.073Z,25.03
2018-08-21T23:38:26.879Z,25.01
2018-08-21T23:39:41.248Z,24.98
2018-08-21T23:40:55.847Z,24.97
2018-08-21T23:42:10.191Z,24.95
2018-08-21T23:43:24.536Z,24.92
2018-08-21T23:44:38.609Z,24.9
2018-08-21T23:45:52.910Z,24.87
2018-08-21T23:47:06.999Z,24.85
2018-08-21T23:48:21.087Z,24.82
2018-08-21T23:49:34.655Z,24.79
2018-08-21T23:50:48.498Z,24.79
2018-08-21T23:52:02.660Z,24.77
2018-08-21T23:53:16.975Z,24.75
2018-08-21T23:54:31.288Z,24.74
2018-08-21T23:55:45.080Z,24.73
2018-08-21T23:56:58.716Z,24.72
2018-08-21T23:58:13.200Z,24.69
2018-08-21T23:59:27.970Z,24.69
